sensor_id;sensor_type;location;lat;lon;timestamp;P1;durP1;ratioP1;P2;durP2;ratioP2
26488;SDS011;14169;43.684;10.484;2023-03-14T00:00:05;6.18;;;1.85;;
26488;SDS011;14169;43.684;10.484;2023-03-14T00:02:35;10.02;;;2.05;;
26488;SDS011;14169;43.684;10.484;2023-03-14T00:05:01;11.70;;;2.33;;
26488;SDS011;14169;43.684;10.484;2023-03-14T00:07:31;8.35;;;1.98;;
26488;SDS011;14169;43.684;10.484;2023-03-14T00:10:04;8.45;;;2.45;;
26488;SDS011;14169;43.684;10.484;2023-03-14T00:12:32;8.48;;;2.05;;
26488;SDS011;14169;43.684;10.484;2023-03-14T00:14:57;7.03;;;1.95;;
26488;SDS011;14169;43.684;10.484;2023-03-14T00:17:24;9.90;;;2.00;;
26488;SDS011;14169;43.684;10.484;2023-03-14T00:19:49;12.93;;;2.22;;
26488;SDS011;14169;43.684;10.484;2023-03-14T00:22:17;12.93;;;2.58;;
26488;SDS011;14169;43.684;10.484;2023-03-14T00:24:43;11.65;;;1.90;;
26488;SDS011;14169;43.684;10.484;2023-03-14T00:27:08;8.23;;;2.08;;
26488;SDS011;14169;43.684;10.484;2023-03-14T00:29:34;9.45;;;1.80;;
26488;SDS011;14169;43.684;10.484;2023-03-14T00:31:59;9.23;;;1.85;;
26488;SDS011;14169;43.684;10.484;2023-03-14T00:34:28;9.10;;;2.67;;
26488;SDS011;14169;43.684;10.484;2023-03-14T00:36:54;14.27;;;3.78;;
26488;SDS011;14169;43.684;10.484;2023-03-14T00:39:19;11.18;;;2.75;;
26488;SDS011;14169;43.684;10.484;2023-03-14T00:41:45;9.48;;;2.97;;
26488;SDS011;14169;43.684;10.484;2023-03-14T00:44:11;12.82;;;3.55;;
26488;SDS011;14169;43.684;10.484;2023-03-14T00:46:37;4.00;;;1.30;;
26488;SDS011;14169;43.684;10.484;2023-03-14T00:49:02;6.03;;;1.95;;
26488;SDS011;14169;43.684;10.484;2023-03-14T00:51:27;5.38;;;1.63;;
26488;SDS011;14169;43.684;10.484;2023-03-14T00:53:53;7.60;;;1.80;;
26488;SDS011;14169;43.684;10.484;2023-03-14T00:56:18;8.77;;;2.35;;
26488;SDS011;14169;43.684;10.484;2023-03-14T00:58:43;5.07;;;1.65;;
26488;SDS011;14169;43.684;10.484;2023-03-14T01:01:10;7.28;;;1.75;;
26488;SDS011;14169;43.684;10.484;2023-03-14T01:03:39;7.47;;;2.08;;
26488;SDS011;14169;43.684;10.484;2023-03-14T01:06:11;6.38;;;1.98;;
26488;SDS011;14169;43.684;10.484;2023-03-14T01:08:42;7.95;;;2.65;;
26488;SDS011;14169;43.684;10.484;2023-03-14T01:11:08;10.65;;;2.45;;
26488;SDS011;14169;43.684;10.484;2023-03-14T01:13:35;4.93;;;1.60;;
26488;SDS011;14169;43.684;10.484;2023-03-14T01:16:02;7.38;;;1.60;;
26488;SDS011;14169;43.684;10.484;2023-03-14T01:18:30;7.75;;;1.60;;
26488;SDS011;14169;43.684;10.484;2023-03-14T01:20:55;10.73;;;2.20;;
26488;SDS011;14169;43.684;10.484;2023-03-14T01:23:21;9.60;;;1.63;;
26488;SDS011;14169;43.684;10.484;2023-03-14T01:25:46;7.88;;;2.05;;
26488;SDS011;14169;43.684;10.484;2023-03-14T01:28:11;8.52;;;1.70;;
26488;SDS011;14169;43.684;10.484;2023-03-14T01:30:37;10.25;;;1.98;;
26488;SDS011;14169;43.684;10.484;2023-03-14T01:33:02;7.38;;;2.22;;
26488;SDS011;14169;43.684;10.484;2023-03-14T01:35:27;7.50;;;1.42;;
26488;SDS011;14169;43.684;10.484;2023-03-14T01:37:53;7.85;;;1.25;;
26488;SDS011;14169;43.684;10.484;2023-03-14T01:40:18;12.40;;;2.45;;
26488;SDS011;14169;43.684;10.484;2023-03-14T01:42:45;4.95;;;1.90;;
26488;SDS011;14169;43.684;10.484;2023-03-14T01:45:52;8.05;;;1.80;;
26488;SDS011;14169;43.684;10.484;2023-03-14T01:48:18;9.30;;;1.65;;
26488;SDS011;14169;43.684;10.484;2023-03-14T01:50:43;5.38;;;1.85;;
26488;SDS011;14169;43.684;10.484;2023-03-14T01:53:09;6.65;;;1.40;;
26488;SDS011;14169;43.684;10.484;2023-03-14T01:55:35;5.22;;;1.52;;
26488;SDS011;14169;43.684;10.484;2023-03-14T01:58:02;8.15;;;1.30;;
26488;SDS011;14169;43.684;10.484;2023-03-14T02:00:30;7.57;;;1.50;;
26488;SDS011;14169;43.684;10.484;2023-03-14T02:02:56;5.45;;;1.00;;
26488;SDS011;14169;43.684;10.484;2023-03-14T02:05:28;7.80;;;1.60;;
26488;SDS011;14169;43.684;10.484;2023-03-14T02:07:58;8.73;;;1.50;;
26488;SDS011;14169;43.684;10.484;2023-03-14T02:10:29;5.85;;;1.33;;
26488;SDS011;14169;43.684;10.484;2023-03-14T02:12:57;3.67;;;1.20;;
26488;SDS011;14169;43.684;10.484;2023-03-14T02:15:26;7.03;;;1.30;;
26488;SDS011;14169;43.684;10.484;2023-03-14T02:17:52;8.35;;;2.85;;
26488;SDS011;14169;43.684;10.484;2023-03-14T02:26:11;8.38;;;1.73;;
26488;SDS011;14169;43.684;10.484;2023-03-14T02:29:01;5.50;;;1.90;;
26488;SDS011;14169;43.684;10.484;2023-03-14T02:31:27;6.82;;;1.35;;
26488;SDS011;14169;43.684;10.484;2023-03-14T02:33:52;4.43;;;1.15;;
26488;SDS011;14169;43.684;10.484;2023-03-14T02:36:18;13.95;;;2.10;;
26488;SDS011;14169;43.684;10.484;2023-03-14T02:41:20;6.72;;;1.85;;
26488;SDS011;14169;43.684;10.484;2023-03-14T02:43:46;4.10;;;1.00;;
26488;SDS011;14169;43.684;10.484;2023-03-14T02:46:13;6.53;;;1.48;;
26488;SDS011;14169;43.684;10.484;2023-03-14T02:48:42;5.13;;;1.45;;
26488;SDS011;14169;43.684;10.484;2023-03-14T02:51:11;5.75;;;1.20;;
26488;SDS011;14169;43.684;10.484;2023-03-14T02:53:37;7.80;;;1.25;;
26488;SDS011;14169;43.684;10.484;2023-03-14T02:56:03;6.22;;;1.77;;
26488;SDS011;14169;43.684;10.484;2023-03-14T02:58:29;5.72;;;1.20;;
26488;SDS011;14169;43.684;10.484;2023-03-14T03:00:55;6.93;;;1.20;;
26488;SDS011;14169;43.684;10.484;2023-03-14T03:03:21;8.63;;;2.45;;
26488;SDS011;14169;43.684;10.484;2023-03-14T03:05:49;6.10;;;1.38;;
26488;SDS011;14169;43.684;10.484;2023-03-14T03:08:16;7.63;;;1.20;;
26488;SDS011;14169;43.684;10.484;2023-03-14T03:10:41;7.40;;;1.77;;
26488;SDS011;14169;43.684;10.484;2023-03-14T03:13:07;8.45;;;1.92;;
26488;SDS011;14169;43.684;10.484;2023-03-14T03:15:32;4.38;;;1.17;;
26488;SDS011;14169;43.684;10.484;2023-03-14T03:17:59;6.13;;;1.60;;
26488;SDS011;14169;43.684;10.484;2023-03-14T03:20:24;6.28;;;1.40;;
26488;SDS011;14169;43.684;10.484;2023-03-14T03:22:50;7.00;;;1.60;;
26488;SDS011;14169;43.684;10.484;2023-03-14T03:25:15;6.82;;;2.38;;
26488;SDS011;14169;43.684;10.484;2023-03-14T03:27:41;7.13;;;1.23;;
26488;SDS011;14169;43.684;10.484;2023-03-14T03:30:07;4.93;;;1.98;;
26488;SDS011;14169;43.684;10.484;2023-03-14T03:32:33;8.95;;;1.90;;
26488;SDS011;14169;43.684;10.484;2023-03-14T03:34:59;4.88;;;1.30;;
26488;SDS011;14169;43.684;10.484;2023-03-14T03:37:24;5.55;;;1.48;;
26488;SDS011;14169;43.684;10.484;2023-03-14T03:39:50;5.82;;;1.60;;
26488;SDS011;14169;43.684;10.484;2023-03-14T03:42:16;7.10;;;1.55;;
26488;SDS011;14169;43.684;10.484;2023-03-14T03:44:41;7.28;;;1.70;;
26488;SDS011;14169;43.684;10.484;2023-03-14T03:47:07;6.95;;;1.63;;
26488;SDS011;14169;43.684;10.484;2023-03-14T03:49:32;9.40;;;2.75;;
26488;SDS011;14169;43.684;10.484;2023-03-14T03:51:58;4.07;;;1.23;;
26488;SDS011;14169;43.684;10.484;2023-03-14T03:54:24;9.13;;;1.80;;
26488;SDS011;14169;43.684;10.484;2023-03-14T03:56:50;5.78;;;1.85;;
26488;SDS011;14169;43.684;10.484;2023-03-14T03:59:18;5.18;;;1.73;;
26488;SDS011;14169;43.684;10.484;2023-03-14T04:01:43;3.45;;;1.20;;
26488;SDS011;14169;43.684;10.484;2023-03-14T04:04:09;7.57;;;1.63;;
26488;SDS011;14169;43.684;10.484;2023-03-14T04:06:34;6.72;;;1.70;;
26488;SDS011;14169;43.684;10.484;2023-03-14T04:09:01;8.32;;;1.38;;
26488;SDS011;14169;43.684;10.484;2023-03-14T04:11:27;7.80;;;2.10;;
26488;SDS011;14169;43.684;10.484;2023-03-14T04:13:52;8.82;;;2.25;;
26488;SDS011;14169;43.684;10.484;2023-03-14T04:16:18;5.38;;;1.50;;
26488;SDS011;14169;43.684;10.484;2023-03-14T04:18:46;9.43;;;2.10;;
26488;SDS011;14169;43.684;10.484;2023-03-14T04:21:12;6.82;;;1.23;;
26488;SDS011;14169;43.684;10.484;2023-03-14T04:23:37;6.43;;;1.92;;
26488;SDS011;14169;43.684;10.484;2023-03-14T04:26:02;5.40;;;1.52;;
26488;SDS011;14169;43.684;10.484;2023-03-14T04:28:28;9.20;;;2.28;;
26488;SDS011;14169;43.684;10.484;2023-03-14T04:30:53;8.40;;;2.00;;
26488;SDS011;14169;43.684;10.484;2023-03-14T04:33:19;5.72;;;1.40;;
26488;SDS011;14169;43.684;10.484;2023-03-14T04:35:45;7.88;;;1.73;;
26488;SDS011;14169;43.684;10.484;2023-03-14T04:38:10;4.97;;;1.98;;
26488;SDS011;14169;43.684;10.484;2023-03-14T04:40:37;7.80;;;1.40;;
26488;SDS011;14169;43.684;10.484;2023-03-14T04:43:03;9.35;;;2.97;;
26488;SDS011;14169;43.684;10.484;2023-03-14T04:45:28;7.22;;;1.80;;
26488;SDS011;14169;43.684;10.484;2023-03-14T04:47:54;7.53;;;2.47;;
26488;SDS011;14169;43.684;10.484;2023-03-14T04:50:19;7.03;;;1.35;;
26488;SDS011;14169;43.684;10.484;2023-03-14T04:52:44;5.00;;;1.23;;
26488;SDS011;14169;43.684;10.484;2023-03-14T04:55:10;6.90;;;1.80;;
26488;SDS011;14169;43.684;10.484;2023-03-14T04:57:35;7.63;;;2.20;;
26488;SDS011;14169;43.684;10.484;2023-03-14T05:00:01;7.38;;;2.15;;
26488;SDS011;14169;43.684;10.484;2023-03-14T05:02:31;7.00;;;1.30;;
26488;SDS011;14169;43.684;10.484;2023-03-14T05:04:56;9.00;;;1.70;;
26488;SDS011;14169;43.684;10.484;2023-03-14T05:07:22;9.52;;;2.05;;
26488;SDS011;14169;43.684;10.484;2023-03-14T05:09:47;6.65;;;1.70;;
26488;SDS011;14169;43.684;10.484;2023-03-14T05:12:13;7.30;;;2.35;;
26488;SDS011;14169;43.684;10.484;2023-03-14T05:14:38;10.23;;;1.95;;
26488;SDS011;14169;43.684;10.484;2023-03-14T05:17:04;6.38;;;2.00;;
26488;SDS011;14169;43.684;10.484;2023-03-14T05:19:29;8.25;;;1.70;;
26488;SDS011;14169;43.684;10.484;2023-03-14T05:21:55;10.68;;;2.90;;
26488;SDS011;14169;43.684;10.484;2023-03-14T05:24:20;10.55;;;2.25;;
26488;SDS011;14169;43.684;10.484;2023-03-14T05:26:45;9.23;;;1.98;;
26488;SDS011;14169;43.684;10.484;2023-03-14T05:29:11;11.55;;;2.90;;
26488;SDS011;14169;43.684;10.484;2023-03-14T05:31:36;9.98;;;2.00;;
26488;SDS011;14169;43.684;10.484;2023-03-14T05:34:02;14.93;;;2.03;;
26488;SDS011;14169;43.684;10.484;2023-03-14T05:36:27;8.25;;;1.70;;
26488;SDS011;14169;43.684;10.484;2023-03-14T05:38:52;8.20;;;2.28;;
26488;SDS011;14169;43.684;10.484;2023-03-14T05:41:18;10.98;;;2.08;;
26488;SDS011;14169;43.684;10.484;2023-03-14T05:43:43;8.30;;;2.08;;
26488;SDS011;14169;43.684;10.484;2023-03-14T05:46:09;9.77;;;2.25;;
26488;SDS011;14169;43.684;10.484;2023-03-14T05:48:34;13.45;;;2.20;;
26488;SDS011;14169;43.684;10.484;2023-03-14T05:50:59;9.05;;;1.85;;
26488;SDS011;14169;43.684;10.484;2023-03-14T05:53:26;9.52;;;2.05;;
26488;SDS011;14169;43.684;10.484;2023-03-14T05:55:52;9.70;;;2.70;;
26488;SDS011;14169;43.684;10.484;2023-03-14T05:58:18;6.97;;;1.92;;
26488;SDS011;14169;43.684;10.484;2023-03-14T06:00:43;9.73;;;2.00;;
26488;SDS011;14169;43.684;10.484;2023-03-14T06:03:09;6.95;;;2.03;;
26488;SDS011;14169;43.684;10.484;2023-03-14T06:05:34;18.48;;;2.05;;
26488;SDS011;14169;43.684;10.484;2023-03-14T06:07:59;10.43;;;2.72;;
26488;SDS011;14169;43.684;10.484;2023-03-14T06:10:25;6.57;;;1.50;;
26488;SDS011;14169;43.684;10.484;2023-03-14T06:12:50;10.15;;;2.35;;
26488;SDS011;14169;43.684;10.484;2023-03-14T06:15:15;10.85;;;2.13;;
26488;SDS011;14169;43.684;10.484;2023-03-14T06:17:41;10.48;;;2.25;;
26488;SDS011;14169;43.684;10.484;2023-03-14T06:20:07;9.50;;;1.70;;
26488;SDS011;14169;43.684;10.484;2023-03-14T06:22:33;9.95;;;2.45;;
26488;SDS011;14169;43.684;10.484;2023-03-14T06:24:58;10.52;;;2.28;;
26488;SDS011;14169;43.684;10.484;2023-03-14T06:27:24;8.52;;;2.00;;
26488;SDS011;14169;43.684;10.484;2023-03-14T06:29:49;9.48;;;1.73;;
26488;SDS011;14169;43.684;10.484;2023-03-14T06:32:14;13.13;;;2.30;;
26488;SDS011;14169;43.684;10.484;2023-03-14T06:34:40;7.20;;;2.17;;
26488;SDS011;14169;43.684;10.484;2023-03-14T06:37:06;8.77;;;2.10;;
26488;SDS011;14169;43.684;10.484;2023-03-14T06:39:31;5.53;;;1.73;;
26488;SDS011;14169;43.684;10.484;2023-03-14T06:41:57;10.00;;;2.00;;
26488;SDS011;14169;43.684;10.484;2023-03-14T06:44:22;13.82;;;2.00;;
26488;SDS011;14169;43.684;10.484;2023-03-14T06:46:47;19.35;;;2.85;;
26488;SDS011;14169;43.684;10.484;2023-03-14T06:49:13;10.43;;;2.00;;
26488;SDS011;14169;43.684;10.484;2023-03-14T06:51:38;11.02;;;2.13;;
26488;SDS011;14169;43.684;10.484;2023-03-14T06:54:07;13.10;;;1.75;;
26488;SDS011;14169;43.684;10.484;2023-03-14T06:56:32;6.20;;;1.90;;
26488;SDS011;14169;43.684;10.484;2023-03-14T06:58:57;15.48;;;2.13;;
26488;SDS011;14169;43.684;10.484;2023-03-14T07:01:24;11.60;;;2.22;;
26488;SDS011;14169;43.684;10.484;2023-03-14T07:03:52;7.65;;;2.00;;
26488;SDS011;14169;43.684;10.484;2023-03-14T07:06:18;9.43;;;2.83;;
26488;SDS011;14169;43.684;10.484;2023-03-14T07:08:44;12.60;;;2.55;;
26488;SDS011;14169;43.684;10.484;2023-03-14T07:11:10;17.95;;;2.97;;
26488;SDS011;14169;43.684;10.484;2023-03-14T07:13:37;10.10;;;2.90;;
26488;SDS011;14169;43.684;10.484;2023-03-14T07:16:03;11.23;;;2.22;;
26488;SDS011;14169;43.684;10.484;2023-03-14T07:18:29;13.38;;;3.92;;
26488;SDS011;14169;43.684;10.484;2023-03-14T07:20:55;8.25;;;1.85;;
26488;SDS011;14169;43.684;10.484;2023-03-14T07:23:20;13.73;;;3.38;;
26488;SDS011;14169;43.684;10.484;2023-03-14T07:25:46;15.63;;;3.10;;
26488;SDS011;14169;43.684;10.484;2023-03-14T07:28:11;11.60;;;2.65;;
26488;SDS011;14169;43.684;10.484;2023-03-14T07:30:37;10.05;;;3.42;;
26488;SDS011;14169;43.684;10.484;2023-03-14T07:33:02;11.35;;;3.35;;
26488;SDS011;14169;43.684;10.484;2023-03-14T07:35:28;11.25;;;3.05;;
26488;SDS011;14169;43.684;10.484;2023-03-14T07:37:53;14.43;;;2.80;;
26488;SDS011;14169;43.684;10.484;2023-03-14T07:40:18;16.25;;;4.05;;
26488;SDS011;14169;43.684;10.484;2023-03-14T07:42:44;8.77;;;3.50;;
26488;SDS011;14169;43.684;10.484;2023-03-14T07:45:09;11.63;;;3.67;;
26488;SDS011;14169;43.684;10.484;2023-03-14T07:47:35;10.95;;;3.53;;
26488;SDS011;14169;43.684;10.484;2023-03-14T07:50:01;8.77;;;2.88;;
26488;SDS011;14169;43.684;10.484;2023-03-14T07:52:27;11.32;;;4.40;;
26488;SDS011;14169;43.684;10.484;2023-03-14T07:54:53;12.75;;;3.20;;
26488;SDS011;14169;43.684;10.484;2023-03-14T07:57:18;16.27;;;3.58;;
26488;SDS011;14169;43.684;10.484;2023-03-14T07:59:43;10.32;;;3.13;;
26488;SDS011;14169;43.684;10.484;2023-03-14T08:02:12;14.32;;;3.03;;
26488;SDS011;14169;43.684;10.484;2023-03-14T08:04:38;11.40;;;2.85;;
26488;SDS011;14169;43.684;10.484;2023-03-14T08:07:04;14.18;;;2.70;;
26488;SDS011;14169;43.684;10.484;2023-03-14T08:09:30;11.73;;;2.75;;
26488;SDS011;14169;43.684;10.484;2023-03-14T08:11:55;15.40;;;3.03;;
26488;SDS011;14169;43.684;10.484;2023-03-14T08:14:21;10.70;;;3.35;;
26488;SDS011;14169;43.684;10.484;2023-03-14T08:16:48;14.30;;;3.47;;
26488;SDS011;14169;43.684;10.484;2023-03-14T08:19:14;14.32;;;3.83;;
26488;SDS011;14169;43.684;10.484;2023-03-14T08:21:40;16.83;;;3.88;;
26488;SDS011;14169;43.684;10.484;2023-03-14T08:24:05;8.60;;;3.05;;
26488;SDS011;14169;43.684;10.484;2023-03-14T08:26:31;9.73;;;3.47;;
26488;SDS011;14169;43.684;10.484;2023-03-14T08:28:56;10.23;;;3.60;;
26488;SDS011;14169;43.684;10.484;2023-03-14T08:31:22;52.25;;;21.15;;
26488;SDS011;14169;43.684;10.484;2023-03-14T08:33:47;64.57;;;23.55;;
26488;SDS011;14169;43.684;10.484;2023-03-14T08:36:12;46.30;;;18.35;;
26488;SDS011;14169;43.684;10.484;2023-03-14T08:38:38;18.08;;;7.55;;
26488;SDS011;14169;43.684;10.484;2023-03-14T08:41:03;10.18;;;3.80;;
26488;SDS011;14169;43.684;10.484;2023-03-14T08:43:29;12.23;;;2.63;;
26488;SDS011;14169;43.684;10.484;2023-03-14T08:45:59;10.73;;;3.10;;
26488;SDS011;14169;43.684;10.484;2023-03-14T08:48:25;8.90;;;3.13;;
26488;SDS011;14169;43.684;10.484;2023-03-14T08:50:51;5.25;;;1.63;;
26488;SDS011;14169;43.684;10.484;2023-03-14T08:53:16;9.65;;;2.17;;
26488;SDS011;14169;43.684;10.484;2023-03-14T08:55:41;10.65;;;3.25;;
26488;SDS011;14169;43.684;10.484;2023-03-14T08:58:07;13.80;;;2.47;;
26488;SDS011;14169;43.684;10.484;2023-03-14T09:00:32;11.02;;;2.60;;
26488;SDS011;14169;43.684;10.484;2023-03-14T09:02:58;15.57;;;2.88;;
26488;SDS011;14169;43.684;10.484;2023-03-14T09:05:23;12.75;;;2.97;;
26488;SDS011;14169;43.684;10.484;2023-03-14T09:07:48;17.52;;;2.58;;
26488;SDS011;14169;43.684;10.484;2023-03-14T09:10:14;14.18;;;2.92;;
26488;SDS011;14169;43.684;10.484;2023-03-14T09:12:39;9.45;;;2.35;;
26488;SDS011;14169;43.684;10.484;2023-03-14T09:15:05;16.98;;;3.17;;
26488;SDS011;14169;43.684;10.484;2023-03-14T09:17:30;11.15;;;2.47;;
26488;SDS011;14169;43.684;10.484;2023-03-14T09:19:56;7.50;;;2.13;;
26488;SDS011;14169;43.684;10.484;2023-03-14T09:22:21;11.00;;;2.78;;
26488;SDS011;14169;43.684;10.484;2023-03-14T09:24:47;11.88;;;2.85;;
26488;SDS011;14169;43.684;10.484;2023-03-14T09:27:12;16.67;;;3.03;;
26488;SDS011;14169;43.684;10.484;2023-03-14T09:29:38;10.15;;;2.25;;
26488;SDS011;14169;43.684;10.484;2023-03-14T09:32:03;10.43;;;2.20;;
26488;SDS011;14169;43.684;10.484;2023-03-14T09:34:29;18.08;;;3.75;;
26488;SDS011;14169;43.684;10.484;2023-03-14T09:36:54;14.40;;;2.85;;
26488;SDS011;14169;43.684;10.484;2023-03-14T09:39:20;18.63;;;3.20;;
26488;SDS011;14169;43.684;10.484;2023-03-14T09:41:46;17.90;;;2.90;;
26488;SDS011;14169;43.684;10.484;2023-03-14T09:47:06;14.45;;;3.40;;
26488;SDS011;14169;43.684;10.484;2023-03-14T09:49:41;15.65;;;3.63;;
26488;SDS011;14169;43.684;10.484;2023-03-14T09:52:11;14.98;;;3.08;;
26488;SDS011;14169;43.684;10.484;2023-03-14T09:54:59;15.85;;;3.72;;
26488;SDS011;14169;43.684;10.484;2023-03-14T09:57:28;14.60;;;2.63;;
26488;SDS011;14169;43.684;10.484;2023-03-14T09:59:56;15.38;;;2.60;;
26488;SDS011;14169;43.684;10.484;2023-03-14T10:02:28;13.10;;;2.38;;
26488;SDS011;14169;43.684;10.484;2023-03-14T10:04:59;13.65;;;2.45;;
26488;SDS011;14169;43.684;10.484;2023-03-14T10:07:28;12.93;;;2.13;;
26488;SDS011;14169;43.684;10.484;2023-03-14T10:09:56;8.18;;;1.70;;
26488;SDS011;14169;43.684;10.484;2023-03-14T10:12:34;10.23;;;1.63;;
26488;SDS011;14169;43.684;10.484;2023-03-14T10:15:03;9.35;;;1.85;;
26488;SDS011;14169;43.684;10.484;2023-03-14T10:17:37;13.85;;;2.28;;
26488;SDS011;14169;43.684;10.484;2023-03-14T10:20:14;13.07;;;1.83;;
26488;SDS011;14169;43.684;10.484;2023-03-14T10:22:52;12.50;;;2.33;;
26488;SDS011;14169;43.684;10.484;2023-03-14T10:25:28;11.07;;;2.20;;
26488;SDS011;14169;43.684;10.484;2023-03-14T10:27:55;7.90;;;2.03;;
26488;SDS011;14169;43.684;10.484;2023-03-14T10:33:22;8.73;;;1.88;;
26488;SDS011;14169;43.684;10.484;2023-03-14T10:36:00;5.93;;;1.92;;
26488;SDS011;14169;43.684;10.484;2023-03-14T10:38:28;10.05;;;2.13;;
26488;SDS011;14169;43.684;10.484;2023-03-14T10:40:55;7.63;;;1.40;;
26488;SDS011;14169;43.684;10.484;2023-03-14T10:43:30;6.07;;;1.00;;
26488;SDS011;14169;43.684;10.484;2023-03-14T10:46:02;9.77;;;1.00;;
26488;SDS011;14169;43.684;10.484;2023-03-14T10:48:34;10.48;;;1.17;;
26488;SDS011;14169;43.684;10.484;2023-03-14T10:51:06;8.15;;;1.60;;
26488;SDS011;14169;43.684;10.484;2023-03-14T10:53:46;6.53;;;1.50;;
26488;SDS011;14169;43.684;10.484;2023-03-14T10:56:14;6.68;;;0.70;;
26488;SDS011;14169;43.684;10.484;2023-03-14T10:58:45;8.90;;;1.40;;
26488;SDS011;14169;43.684;10.484;2023-03-14T11:07:21;6.38;;;0.90;;
26488;SDS011;14169;43.684;10.484;2023-03-14T11:13:03;6.10;;;1.08;;
26488;SDS011;14169;43.684;10.484;2023-03-14T11:15:34;8.10;;;1.65;;
26488;SDS011;14169;43.684;10.484;2023-03-14T11:21:21;5.25;;;1.38;;
26488;SDS011;14169;43.684;10.484;2023-03-14T11:32:13;8.48;;;1.50;;
26488;SDS011;14169;43.684;10.484;2023-03-14T11:35:03;10.07;;;1.60;;
26488;SDS011;14169;43.684;10.484;2023-03-14T11:37:42;12.38;;;1.83;;
26488;SDS011;14169;43.684;10.484;2023-03-14T11:40:13;13.73;;;1.33;;
26488;SDS011;14169;43.684;10.484;2023-03-14T11:42:40;9.23;;;1.92;;
26488;SDS011;14169;43.684;10.484;2023-03-14T11:45:18;8.43;;;1.95;;
26488;SDS011;14169;43.684;10.484;2023-03-14T11:48:05;11.88;;;2.20;;
26488;SDS011;14169;43.684;10.484;2023-03-14T11:50:31;7.57;;;1.75;;
26488;SDS011;14169;43.684;10.484;2023-03-14T11:55:32;8.68;;;2.25;;
26488;SDS011;14169;43.684;10.484;2023-03-14T11:58:01;13.43;;;2.55;;
26488;SDS011;14169;43.684;10.484;2023-03-14T12:00:37;10.13;;;2.13;;
26488;SDS011;14169;43.684;10.484;2023-03-14T12:13:57;8.65;;;2.75;;
26488;SDS011;14169;43.684;10.484;2023-03-14T12:18:48;11.38;;;2.30;;
26488;SDS011;14169;43.684;10.484;2023-03-14T12:21:14;14.82;;;3.38;;
26488;SDS011;14169;43.684;10.484;2023-03-14T12:26:24;12.48;;;2.50;;
26488;SDS011;14169;43.684;10.484;2023-03-14T12:34:01;11.98;;;2.53;;
26488;SDS011;14169;43.684;10.484;2023-03-14T12:36:48;15.50;;;2.80;;
26488;SDS011;14169;43.684;10.484;2023-03-14T12:39:37;12.50;;;1.85;;
26488;SDS011;14169;43.684;10.484;2023-03-14T12:44:49;14.00;;;2.35;;
26488;SDS011;14169;43.684;10.484;2023-03-14T12:49:48;8.68;;;1.77;;
26488;SDS011;14169;43.684;10.484;2023-03-14T12:54:51;16.05;;;3.03;;
26488;SDS011;14169;43.684;10.484;2023-03-14T13:00:01;16.70;;;3.08;;
26488;SDS011;14169;43.684;10.484;2023-03-14T13:02:41;16.63;;;2.60;;
26488;SDS011;14169;43.684;10.484;2023-03-14T13:05:19;17.13;;;3.35;;
26488;SDS011;14169;43.684;10.484;2023-03-14T13:15:42;22.80;;;4.43;;
26488;SDS011;14169;43.684;10.484;2023-03-14T13:18:22;15.90;;;2.65;;
26488;SDS011;14169;43.684;10.484;2023-03-14T13:20:58;21.05;;;2.78;;
26488;SDS011;14169;43.684;10.484;2023-03-14T13:23:29;20.10;;;3.58;;
26488;SDS011;14169;43.684;10.484;2023-03-14T13:25:59;16.35;;;3.00;;
26488;SDS011;14169;43.684;10.484;2023-03-14T13:28:26;16.55;;;3.50;;
26488;SDS011;14169;43.684;10.484;2023-03-14T13:30:58;14.60;;;2.85;;
26488;SDS011;14169;43.684;10.484;2023-03-14T13:33:25;16.33;;;3.15;;
26488;SDS011;14169;43.684;10.484;2023-03-14T13:38:27;20.73;;;3.42;;
26488;SDS011;14169;43.684;10.484;2023-03-14T13:40:56;8.88;;;2.67;;
26488;SDS011;14169;43.684;10.484;2023-03-14T13:43:36;16.10;;;3.00;;
26488;SDS011;14169;43.684;10.484;2023-03-14T13:46:16;20.35;;;4.53;;
26488;SDS011;14169;43.684;10.484;2023-03-14T13:48:52;20.80;;;3.50;;
26488;SDS011;14169;43.684;10.484;2023-03-14T13:51:21;20.90;;;3.28;;
26488;SDS011;14169;43.684;10.484;2023-03-14T13:53:54;19.88;;;4.00;;
26488;SDS011;14169;43.684;10.484;2023-03-14T13:56:21;14.73;;;3.10;;
26488;SDS011;14169;43.684;10.484;2023-03-14T13:58:48;14.50;;;2.97;;
26488;SDS011;14169;43.684;10.484;2023-03-14T14:01:33;21.20;;;4.63;;
26488;SDS011;14169;43.684;10.484;2023-03-14T14:04:05;22.05;;;3.92;;
26488;SDS011;14169;43.684;10.484;2023-03-14T14:06:37;19.40;;;3.43;;
26488;SDS011;14169;43.684;10.484;2023-03-14T14:09:12;26.27;;;4.25;;
26488;SDS011;14169;43.684;10.484;2023-03-14T14:14:35;34.90;;;4.75;;
26488;SDS011;14169;43.684;10.484;2023-03-14T14:17:03;23.63;;;4.80;;
26488;SDS011;14169;43.684;10.484;2023-03-14T14:19:32;20.10;;;4.30;;
26488;SDS011;14169;43.684;10.484;2023-03-14T14:22:00;26.83;;;5.30;;
26488;SDS011;14169;43.684;10.484;2023-03-14T14:24:28;17.27;;;4.35;;
26488;SDS011;14169;43.684;10.484;2023-03-14T14:27:39;19.55;;;3.90;;
26488;SDS011;14169;43.684;10.484;2023-03-14T14:32:50;35.75;;;4.45;;
26488;SDS011;14169;43.684;10.484;2023-03-14T14:35:26;22.60;;;3.47;;
26488;SDS011;14169;43.684;10.484;2023-03-14T14:37:58;23.13;;;4.75;;
26488;SDS011;14169;43.684;10.484;2023-03-14T14:40:25;26.85;;;4.18;;
26488;SDS011;14169;43.684;10.484;2023-03-14T14:42:52;27.55;;;4.72;;
26488;SDS011;14169;43.684;10.484;2023-03-14T14:45:20;26.20;;;5.50;;
26488;SDS011;14169;43.684;10.484;2023-03-14T14:47:50;20.58;;;5.45;;
26488;SDS011;14169;43.684;10.484;2023-03-14T14:53:19;32.83;;;4.97;;
26488;SDS011;14169;43.684;10.484;2023-03-14T14:55:49;26.40;;;5.00;;
26488;SDS011;14169;43.684;10.484;2023-03-14T15:00:54;26.38;;;4.10;;
26488;SDS011;14169;43.684;10.484;2023-03-14T15:03:22;25.63;;;5.38;;
26488;SDS011;14169;43.684;10.484;2023-03-14T15:05:52;20.95;;;3.60;;
26488;SDS011;14169;43.684;10.484;2023-03-14T15:08:20;29.60;;;4.97;;
26488;SDS011;14169;43.684;10.484;2023-03-14T15:10:46;32.08;;;5.32;;
26488;SDS011;14169;43.684;10.484;2023-03-14T15:13:11;28.17;;;4.20;;
26488;SDS011;14169;43.684;10.484;2023-03-14T15:15:36;28.95;;;5.72;;
26488;SDS011;14169;43.684;10.484;2023-03-14T15:18:04;27.70;;;4.30;;
26488;SDS011;14169;43.684;10.484;2023-03-14T15:20:38;27.30;;;5.05;;
26488;SDS011;14169;43.684;10.484;2023-03-14T15:23:07;25.90;;;5.63;;
26488;SDS011;14169;43.684;10.484;2023-03-14T15:25:35;48.17;;;5.85;;
26488;SDS011;14169;43.684;10.484;2023-03-14T15:28:01;30.20;;;6.18;;
26488;SDS011;14169;43.684;10.484;2023-03-14T15:30:27;40.63;;;6.07;;
26488;SDS011;14169;43.684;10.484;2023-03-14T15:32:52;28.33;;;4.85;;
26488;SDS011;14169;43.684;10.484;2023-03-14T15:35:18;31.05;;;4.80;;
26488;SDS011;14169;43.684;10.484;2023-03-14T15:37:43;30.02;;;5.38;;
26488;SDS011;14169;43.684;10.484;2023-03-14T15:40:10;24.75;;;4.72;;
26488;SDS011;14169;43.684;10.484;2023-03-14T15:42:39;28.92;;;5.22;;
26488;SDS011;14169;43.684;10.484;2023-03-14T15:45:05;21.20;;;4.60;;
26488;SDS011;14169;43.684;10.484;2023-03-14T15:47:31;22.00;;;4.30;;
26488;SDS011;14169;43.684;10.484;2023-03-14T15:49:57;38.78;;;5.45;;
26488;SDS011;14169;43.684;10.484;2023-03-14T15:52:22;26.60;;;4.32;;
26488;SDS011;14169;43.684;10.484;2023-03-14T15:54:48;26.08;;;5.53;;
26488;SDS011;14169;43.684;10.484;2023-03-14T15:57:13;32.72;;;5.70;;
26488;SDS011;14169;43.684;10.484;2023-03-14T15:59:38;26.35;;;6.22;;
26488;SDS011;14169;43.684;10.484;2023-03-14T16:02:04;37.00;;;5.40;;